createdAt,value
2024-01-20T00:06:15.214Z,-0.62
2024-01-20T00:16:15.058Z,-0.51
2024-01-20T00:26:14.998Z,-0.34
2024-01-20T00:36:14.898Z,-0.40
2024-01-20T00:46:14.809Z,-0.40
2024-01-20T00:56:14.817Z,-0.04
2024-01-20T01:06:14.715Z,0.17
2024-01-20T01:16:14.602Z,0.26
2024-01-20T01:26:14.523Z,0.23
2024-01-20T01:36:14.347Z,0.17
2024-01-20T01:46:14.277Z,0.16
2024-01-20T01:56:14.138Z,0.20
2024-01-20T02:06:21.999Z,0.13
2024-01-20T02:16:14.052Z,0.06
2024-01-20T02:26:13.839Z,0.16
2024-01-20T02:36:13.773Z,0.09
2024-01-20T02:46:13.599Z,0.23
2024-01-20T02:56:13.481Z,0.42
2024-01-20T03:06:13.451Z,0.37
2024-01-20T03:16:13.317Z,0.53
2024-01-20T03:26:13.223Z,0.49
2024-01-20T03:36:13.113Z,0.53
2024-01-20T03:46:12.996Z,0.61
2024-01-20T03:56:12.986Z,0.74
2024-01-20T04:06:12.853Z,0.74
2024-01-20T04:16:12.682Z,0.79
2024-01-20T04:26:12.656Z,0.75
2024-01-20T04:36:12.550Z,0.78
2024-01-20T04:46:12.408Z,0.60
2024-01-20T04:56:12.269Z,0.42
2024-01-20T05:06:12.241Z,0.30
2024-01-20T05:16:12.154Z,0.19
2024-01-20T05:26:12.038Z,0.44
2024-01-20T05:36:11.946Z,0.63
2024-01-20T05:46:11.803Z,0.82
2024-01-20T05:56:11.932Z,0.96
2024-01-20T06:06:12.490Z,1.03
2024-01-20T06:16:11.549Z,0.81
2024-01-20T06:26:11.698Z,0.53
2024-01-20T06:36:11.550Z,0.44
2024-01-20T06:46:11.221Z,0.39
2024-01-20T06:56:11.179Z,0.39
2024-01-20T07:06:11.139Z,0.51
2024-01-20T07:16:10.955Z,0.58
2024-01-20T07:26:10.818Z,0.61
2024-01-20T07:36:10.805Z,0.84
2024-01-20T07:46:10.680Z,0.99
2024-01-20T07:56:10.584Z,1.10
2024-01-20T08:06:10.482Z,1.15
2024-01-20T08:16:10.333Z,1.18
2024-01-20T08:26:10.381Z,1.25
2024-01-20T08:36:10.177Z,1.39
2024-01-20T08:46:10.412Z,1.43
2024-01-20T08:56:10.010Z,1.56
2024-01-20T09:06:09.885Z,1.74
2024-01-20T09:16:09.848Z,1.97
2024-01-20T09:26:09.731Z,2.01
2024-01-20T09:36:09.542Z,1.98
2024-01-20T09:46:09.502Z,2.09
2024-01-20T09:56:09.318Z,2.05
2024-01-20T10:06:09.632Z,2.19
2024-01-20T10:16:09.116Z,2.33
2024-01-20T10:26:09.004Z,2.73
2024-01-20T10:36:08.971Z,2.98
2024-01-20T10:46:08.860Z,3.24
2024-01-20T10:56:08.753Z,3.11
2024-01-20T11:06:09.046Z,2.98
2024-01-20T11:16:08.794Z,2.75
2024-01-20T11:26:08.440Z,2.72
2024-01-20T11:36:12.417Z,2.84
2024-01-20T11:46:08.277Z,3.12
2024-01-20T11:56:08.179Z,3.39
2024-01-20T12:06:11.953Z,3.24
2024-01-20T12:16:08.053Z,3.37
2024-01-20T12:26:08.076Z,3.39
2024-01-20T12:36:07.766Z,3.42
2024-01-20T12:46:07.712Z,3.54
2024-01-20T12:56:07.658Z,3.50
2024-01-20T13:06:07.711Z,3.57
2024-01-20T13:16:07.456Z,3.24
2024-01-20T13:26:07.295Z,3.29
2024-01-20T13:36:07.186Z,3.40
2024-01-20T13:46:07.178Z,3.49
2024-01-20T13:56:07.210Z,3.52
2024-01-20T14:06:07.109Z,3.54
2024-01-20T14:16:06.892Z,3.54
2024-01-20T14:26:06.659Z,3.54
2024-01-20T14:36:06.602Z,3.49
2024-01-20T14:46:06.528Z,3.58
2024-01-20T14:56:06.402Z,3.34
2024-01-20T15:06:06.682Z,3.29
2024-01-20T15:16:06.207Z,3.19
2024-01-20T15:26:06.222Z,3.09
2024-01-20T15:36:05.973Z,2.99
2024-01-20T15:46:05.921Z,2.83
2024-01-20T15:56:05.795Z,2.69
2024-01-20T16:06:05.831Z,2.41
2024-01-20T16:16:07.141Z,2.18
2024-01-20T16:26:06.710Z,1.79
2024-01-20T16:36:05.389Z,1.50
2024-01-20T16:46:05.271Z,1.38
2024-01-20T16:56:05.222Z,1.22
2024-01-20T17:06:05.109Z,1.00
2024-01-20T17:16:05.176Z,0.88
2024-01-20T17:26:04.904Z,0.76
2024-01-20T17:36:04.840Z,0.85
2024-01-20T17:46:04.670Z,0.84
2024-01-20T17:56:04.564Z,0.86
2024-01-20T18:06:04.615Z,0.79
2024-01-20T18:16:04.344Z,0.84
2024-01-20T18:26:04.339Z,0.47
2024-01-20T18:36:04.229Z,0.17
2024-01-20T18:46:15.968Z,-0.07
2024-01-20T18:56:03.955Z,-0.24
2024-01-20T19:06:03.903Z,-0.37
2024-01-20T19:16:03.779Z,-0.59
2024-01-20T19:26:03.624Z,-0.62
2024-01-20T19:36:03.590Z,-0.66
2024-01-20T19:46:03.441Z,-0.66
2024-01-20T19:56:03.653Z,-0.76
2024-01-20T20:06:03.294Z,-0.96
2024-01-20T20:16:03.192Z,-1.09
2024-01-20T20:26:03.070Z,-1.16
2024-01-20T20:36:03.192Z,-1.34
2024-01-20T20:46:02.877Z,-1.47
2024-01-20T20:56:02.769Z,-1.64
2024-01-20T21:06:02.826Z,-1.83
2024-01-20T21:16:02.667Z,-1.97
2024-01-20T21:26:02.518Z,-2.12
2024-01-20T21:36:02.419Z,-2.27
2024-01-20T21:46:02.279Z,-2.37
2024-01-20T21:56:02.179Z,-2.55
2024-01-20T22:06:02.144Z,-2.64
2024-01-20T22:16:01.981Z,-2.79
2024-01-20T22:26:02.185Z,-2.98
2024-01-20T22:36:01.778Z,-2.80
2024-01-20T22:46:01.706Z,-2.88
2024-01-20T22:56:01.603Z,-2.97
2024-01-20T23:06:01.529Z,-3.01
2024-01-20T23:16:01.390Z,-3.14
2024-01-20T23:26:01.310Z,-3.15
2024-01-20T23:36:01.210Z,-3.25
2024-01-20T23:46:01.155Z,-3.57
2024-01-20T23:56:01.016Z,-3.65
